sensor_id;sensor_type;location;lat;lon;timestamp;P1;durP1;ratioP1;P2;durP2;ratioP2
40044;SDS011;25735;48.122;11.422;2022-08-01T00:00:07;2.93;;;2.33;;
40044;SDS011;25735;48.122;11.422;2022-08-01T00:02:32;2.75;;;1.80;;
40044;SDS011;25735;48.122;11.422;2022-08-01T00:04:57;2.13;;;1.70;;
40044;SDS011;25735;48.122;11.422;2022-08-01T00:07:23;2.03;;;1.70;;
40044;SDS011;25735;48.122;11.422;2022-08-01T00:09:48;2.75;;;1.92;;
40044;SDS011;25735;48.122;11.422;2022-08-01T00:12:13;2.60;;;2.17;;
40044;SDS011;25735;48.122;11.422;2022-08-01T00:14:38;2.20;;;1.60;;
40044;SDS011;25735;48.122;11.422;2022-08-01T00:17:04;3.83;;;1.93;;
40044;SDS011;25735;48.122;11.422;2022-08-01T00:19:29;1.83;;;1.57;;
40044;SDS011;25735;48.122;11.422;2022-08-01T00:21:54;2.07;;;1.97;;
40044;SDS011;25735;48.122;11.422;2022-08-01T00:24:19;2.17;;;1.98;;
40044;SDS011;25735;48.122;11.422;2022-08-01T00:26:44;2.43;;;2.20;;
40044;SDS011;25735;48.122;11.422;2022-08-01T00:29:09;2.27;;;2.07;;
40044;SDS011;25735;48.122;11.422;2022-08-01T00:31:35;1.80;;;1.70;;
40044;SDS011;25735;48.122;11.422;2022-08-01T00:34:00;1.73;;;1.63;;
40044;SDS011;25735;48.122;11.422;2022-08-01T00:36:25;3.45;;;2.20;;
40044;SDS011;25735;48.122;11.422;2022-08-01T00:38:50;3.05;;;2.00;;
40044;SDS011;25735;48.122;11.422;2022-08-01T00:41:15;1.80;;;1.70;;
40044;SDS011;25735;48.122;11.422;2022-08-01T00:43:41;4.07;;;1.80;;
40044;SDS011;25735;48.122;11.422;2022-08-01T00:46:06;2.08;;;1.80;;
40044;SDS011;25735;48.122;11.422;2022-08-01T00:48:31;2.03;;;1.70;;
40044;SDS011;25735;48.122;11.422;2022-08-01T00:50:56;2.13;;;1.93;;
40044;SDS011;25735;48.122;11.422;2022-08-01T00:53:21;2.20;;;2.00;;
40044;SDS011;25735;48.122;11.422;2022-08-01T00:55:47;4.30;;;2.63;;
40044;SDS011;25735;48.122;11.422;2022-08-01T00:58:13;2.40;;;2.20;;
40044;SDS011;25735;48.122;11.422;2022-08-01T01:00:38;2.00;;;1.77;;
40044;SDS011;25735;48.122;11.422;2022-08-01T01:03:03;2.10;;;2.00;;
40044;SDS011;25735;48.122;11.422;2022-08-01T01:05:28;1.90;;;1.70;;
40044;SDS011;25735;48.122;11.422;2022-08-01T01:08:08;3.03;;;2.22;;
40044;SDS011;25735;48.122;11.422;2022-08-01T01:10:43;2.47;;;2.28;;
40044;SDS011;25735;48.122;11.422;2022-08-01T01:13:11;3.65;;;1.88;;
40044;SDS011;25735;48.122;11.422;2022-08-01T01:15:46;1.95;;;1.85;;
40044;SDS011;25735;48.122;11.422;2022-08-01T01:18:25;2.25;;;2.10;;
40044;SDS011;25735;48.122;11.422;2022-08-01T01:20:57;3.22;;;1.80;;
40044;SDS011;25735;48.122;11.422;2022-08-01T01:25:54;2.85;;;1.73;;
40044;SDS011;25735;48.122;11.422;2022-08-01T01:28:51;4.22;;;2.40;;
40044;SDS011;25735;48.122;11.422;2022-08-01T01:31:17;2.13;;;1.92;;
40044;SDS011;25735;48.122;11.422;2022-08-01T01:33:43;3.70;;;1.98;;
40044;SDS011;25735;48.122;11.422;2022-08-01T01:36:09;5.03;;;1.92;;
40044;SDS011;25735;48.122;11.422;2022-08-01T01:38:37;2.38;;;2.17;;
40044;SDS011;25735;48.122;11.422;2022-08-01T01:41:06;4.10;;;2.40;;
40044;SDS011;25735;48.122;11.422;2022-08-01T01:43:32;2.50;;;2.03;;
40044;SDS011;25735;48.122;11.422;2022-08-01T01:45:58;4.53;;;2.00;;
40044;SDS011;25735;48.122;11.422;2022-08-01T01:48:24;2.47;;;1.95;;
40044;SDS011;25735;48.122;11.422;2022-08-01T01:50:51;3.08;;;2.00;;
40044;SDS011;25735;48.122;11.422;2022-08-01T01:53:17;2.42;;;1.98;;
40044;SDS011;25735;48.122;11.422;2022-08-01T01:55:44;2.28;;;2.08;;
40044;SDS011;25735;48.122;11.422;2022-08-01T01:58:12;2.58;;;1.88;;
40044;SDS011;25735;48.122;11.422;2022-08-01T02:00:38;2.65;;;2.10;;
40044;SDS011;25735;48.122;11.422;2022-08-01T02:03:04;2.83;;;1.90;;
40044;SDS011;25735;48.122;11.422;2022-08-01T02:05:30;2.40;;;2.17;;
40044;SDS011;25735;48.122;11.422;2022-08-01T02:07:55;4.80;;;2.20;;
40044;SDS011;25735;48.122;11.422;2022-08-01T02:10:22;2.38;;;2.08;;
40044;SDS011;25735;48.122;11.422;2022-08-01T02:12:47;2.83;;;2.30;;
40044;SDS011;25735;48.122;11.422;2022-08-01T02:15:14;3.13;;;2.03;;
40044;SDS011;25735;48.122;11.422;2022-08-01T02:17:42;5.00;;;2.15;;
40044;SDS011;25735;48.122;11.422;2022-08-01T02:20:08;3.17;;;1.73;;
40044;SDS011;25735;48.122;11.422;2022-08-01T02:22:35;2.97;;;2.00;;
40044;SDS011;25735;48.122;11.422;2022-08-01T02:27:34;2.78;;;2.25;;
40044;SDS011;25735;48.122;11.422;2022-08-01T02:30:04;3.17;;;2.15;;
40044;SDS011;25735;48.122;11.422;2022-08-01T02:32:31;2.00;;;1.83;;
40044;SDS011;25735;48.122;11.422;2022-08-01T02:34:57;2.47;;;1.77;;
40044;SDS011;25735;48.122;11.422;2022-08-01T02:37:24;3.58;;;1.90;;
40044;SDS011;25735;48.122;11.422;2022-08-01T02:39:51;2.78;;;2.05;;
40044;SDS011;25735;48.122;11.422;2022-08-01T02:42:17;2.15;;;1.98;;
40044;SDS011;25735;48.122;11.422;2022-08-01T02:44:43;2.35;;;2.15;;
40044;SDS011;25735;48.122;11.422;2022-08-01T02:47:09;2.45;;;1.90;;
40044;SDS011;25735;48.122;11.422;2022-08-01T02:49:36;2.72;;;2.10;;
40044;SDS011;25735;48.122;11.422;2022-08-01T02:52:04;2.28;;;2.08;;
40044;SDS011;25735;48.122;11.422;2022-08-01T02:54:29;3.70;;;1.95;;
40044;SDS011;25735;48.122;11.422;2022-08-01T02:56:56;6.45;;;2.58;;
40044;SDS011;25735;48.122;11.422;2022-08-01T02:59:21;3.22;;;1.98;;
40044;SDS011;25735;48.122;11.422;2022-08-01T03:01:50;2.25;;;2.05;;
40044;SDS011;25735;48.122;11.422;2022-08-01T03:04:16;2.33;;;1.83;;
40044;SDS011;25735;48.122;11.422;2022-08-01T03:06:42;2.50;;;2.20;;
40044;SDS011;25735;48.122;11.422;2022-08-01T03:09:08;2.47;;;2.28;;
40044;SDS011;25735;48.122;11.422;2022-08-01T03:11:33;2.25;;;2.05;;
40044;SDS011;25735;48.122;11.422;2022-08-01T03:14:01;2.22;;;1.75;;
40044;SDS011;25735;48.122;11.422;2022-08-01T03:16:27;2.45;;;2.10;;
40044;SDS011;25735;48.122;11.422;2022-08-01T03:18:53;2.13;;;1.88;;
40044;SDS011;25735;48.122;11.422;2022-08-01T03:21:20;2.63;;;2.20;;
40044;SDS011;25735;48.122;11.422;2022-08-01T03:23:45;4.90;;;2.35;;
40044;SDS011;25735;48.122;11.422;2022-08-01T03:26:11;2.83;;;2.00;;
40044;SDS011;25735;48.122;11.422;2022-08-01T03:28:37;2.40;;;2.03;;
40044;SDS011;25735;48.122;11.422;2022-08-01T03:31:03;2.40;;;2.20;;
40044;SDS011;25735;48.122;11.422;2022-08-01T03:33:29;2.42;;;2.00;;
40044;SDS011;25735;48.122;11.422;2022-08-01T03:35:54;2.00;;;1.80;;
40044;SDS011;25735;48.122;11.422;2022-08-01T03:38:21;2.78;;;2.08;;
40044;SDS011;25735;48.122;11.422;2022-08-01T03:40:49;2.95;;;2.42;;
40044;SDS011;25735;48.122;11.422;2022-08-01T03:43:18;2.30;;;2.10;;
40044;SDS011;25735;48.122;11.422;2022-08-01T03:45:46;2.60;;;2.28;;
40044;SDS011;25735;48.122;11.422;2022-08-01T03:48:14;3.00;;;2.10;;
40044;SDS011;25735;48.122;11.422;2022-08-01T03:50:41;3.20;;;2.00;;
40044;SDS011;25735;48.122;11.422;2022-08-01T03:53:07;3.10;;;2.33;;
40044;SDS011;25735;48.122;11.422;2022-08-01T03:55:34;2.45;;;2.20;;
40044;SDS011;25735;48.122;11.422;2022-08-01T03:58:02;3.85;;;2.15;;
40044;SDS011;25735;48.122;11.422;2022-08-01T04:00:28;2.58;;;2.00;;
40044;SDS011;25735;48.122;11.422;2022-08-01T04:02:54;3.67;;;2.40;;
40044;SDS011;25735;48.122;11.422;2022-08-01T04:05:20;2.63;;;1.85;;
40044;SDS011;25735;48.122;11.422;2022-08-01T04:07:49;2.70;;;1.92;;
40044;SDS011;25735;48.122;11.422;2022-08-01T04:10:20;2.80;;;2.60;;
40044;SDS011;25735;48.122;11.422;2022-08-01T04:12:45;4.00;;;2.10;;
40044;SDS011;25735;48.122;11.422;2022-08-01T04:15:10;3.93;;;2.43;;
40044;SDS011;25735;48.122;11.422;2022-08-01T04:17:36;3.37;;;2.10;;
40044;SDS011;25735;48.122;11.422;2022-08-01T04:20:01;2.30;;;1.80;;
40044;SDS011;25735;48.122;11.422;2022-08-01T04:22:26;3.42;;;2.22;;
40044;SDS011;25735;48.122;11.422;2022-08-01T04:24:53;3.83;;;2.58;;
40044;SDS011;25735;48.122;11.422;2022-08-01T04:27:22;2.72;;;2.25;;
40044;SDS011;25735;48.122;11.422;2022-08-01T04:29:49;3.58;;;2.47;;
40044;SDS011;25735;48.122;11.422;2022-08-01T04:32:15;2.05;;;1.90;;
40044;SDS011;25735;48.122;11.422;2022-08-01T04:34:41;2.28;;;2.10;;
40044;SDS011;25735;48.122;11.422;2022-08-01T04:37:07;1.85;;;1.75;;
40044;SDS011;25735;48.122;11.422;2022-08-01T04:39:33;3.22;;;2.05;;
40044;SDS011;25735;48.122;11.422;2022-08-01T04:42:01;2.05;;;1.95;;
40044;SDS011;25735;48.122;11.422;2022-08-01T04:44:28;2.38;;;1.95;;
40044;SDS011;25735;48.122;11.422;2022-08-01T04:46:53;2.35;;;2.15;;
40044;SDS011;25735;48.122;11.422;2022-08-01T04:49:19;2.95;;;2.00;;
40044;SDS011;25735;48.122;11.422;2022-08-01T04:51:51;3.15;;;2.10;;
40044;SDS011;25735;48.122;11.422;2022-08-01T04:54:17;2.67;;;2.25;;
40044;SDS011;25735;48.122;11.422;2022-08-01T04:56:42;1.88;;;1.77;;
40044;SDS011;25735;48.122;11.422;2022-08-01T04:59:08;2.37;;;1.87;;
40044;SDS011;25735;48.122;11.422;2022-08-01T05:01:51;3.33;;;2.35;;
40044;SDS011;25735;48.122;11.422;2022-08-01T05:04:16;2.13;;;1.97;;
40044;SDS011;25735;48.122;11.422;2022-08-01T05:06:42;3.07;;;2.03;;
40044;SDS011;25735;48.122;11.422;2022-08-01T05:09:07;3.47;;;2.10;;
40044;SDS011;25735;48.122;11.422;2022-08-01T05:11:32;3.05;;;2.20;;
40044;SDS011;25735;48.122;11.422;2022-08-01T05:13:57;2.47;;;2.13;;
40044;SDS011;25735;48.122;11.422;2022-08-01T05:16:22;4.30;;;1.97;;
40044;SDS011;25735;48.122;11.422;2022-08-01T05:18:48;2.40;;;2.20;;
40044;SDS011;25735;48.122;11.422;2022-08-01T05:21:13;2.40;;;2.10;;
40044;SDS011;25735;48.122;11.422;2022-08-01T05:23:38;2.70;;;2.10;;
40044;SDS011;25735;48.122;11.422;2022-08-01T05:26:03;2.67;;;2.40;;
40044;SDS011;25735;48.122;11.422;2022-08-01T05:28:29;4.85;;;2.58;;
40044;SDS011;25735;48.122;11.422;2022-08-01T05:30:55;2.30;;;2.05;;
40044;SDS011;25735;48.122;11.422;2022-08-01T05:33:20;2.20;;;2.00;;
40044;SDS011;25735;48.122;11.422;2022-08-01T05:35:46;2.47;;;2.28;;
40044;SDS011;25735;48.122;11.422;2022-08-01T05:38:11;2.45;;;2.03;;
40044;SDS011;25735;48.122;11.422;2022-08-01T05:40:36;3.20;;;2.20;;
40044;SDS011;25735;48.122;11.422;2022-08-01T05:43:02;3.50;;;1.90;;
40044;SDS011;25735;48.122;11.422;2022-08-01T05:45:27;2.13;;;1.83;;
40044;SDS011;25735;48.122;11.422;2022-08-01T05:47:52;3.23;;;2.00;;
40044;SDS011;25735;48.122;11.422;2022-08-01T05:50:17;3.70;;;1.83;;
40044;SDS011;25735;48.122;11.422;2022-08-01T05:52:42;2.80;;;2.03;;
40044;SDS011;25735;48.122;11.422;2022-08-01T05:55:08;5.27;;;2.10;;
40044;SDS011;25735;48.122;11.422;2022-08-01T05:57:34;2.15;;;1.95;;
40044;SDS011;25735;48.122;11.422;2022-08-01T05:59:59;3.00;;;2.03;;
40044;SDS011;25735;48.122;11.422;2022-08-01T06:02:24;3.67;;;1.87;;
40044;SDS011;25735;48.122;11.422;2022-08-01T06:04:49;2.13;;;1.92;;
40044;SDS011;25735;48.122;11.422;2022-08-01T06:07:14;4.00;;;2.00;;
40044;SDS011;25735;48.122;11.422;2022-08-01T06:09:40;2.30;;;1.83;;
40044;SDS011;25735;48.122;11.422;2022-08-01T06:12:05;4.77;;;1.73;;
40044;SDS011;25735;48.122;11.422;2022-08-01T06:14:30;4.22;;;2.13;;
40044;SDS011;25735;48.122;11.422;2022-08-01T06:16:55;2.40;;;2.20;;
40044;SDS011;25735;48.122;11.422;2022-08-01T06:19:20;6.65;;;3.17;;
40044;SDS011;25735;48.122;11.422;2022-08-01T06:21:46;2.50;;;2.20;;
40044;SDS011;25735;48.122;11.422;2022-08-01T06:24:11;3.87;;;2.67;;
40044;SDS011;25735;48.122;11.422;2022-08-01T06:26:36;2.37;;;2.17;;
40044;SDS011;25735;48.122;11.422;2022-08-01T06:29:02;3.53;;;1.85;;
40044;SDS011;25735;48.122;11.422;2022-08-01T06:31:27;2.42;;;2.17;;
40044;SDS011;25735;48.122;11.422;2022-08-01T06:33:52;3.10;;;1.85;;
40044;SDS011;25735;48.122;11.422;2022-08-01T06:36:18;2.80;;;2.43;;
40044;SDS011;25735;48.122;11.422;2022-08-01T06:38:43;4.67;;;2.37;;
40044;SDS011;25735;48.122;11.422;2022-08-01T06:41:08;3.77;;;2.67;;
40044;SDS011;25735;48.122;11.422;2022-08-01T06:43:33;4.00;;;2.10;;
40044;SDS011;25735;48.122;11.422;2022-08-01T06:45:58;3.83;;;2.50;;
40044;SDS011;25735;48.122;11.422;2022-08-01T06:48:24;2.85;;;2.55;;
40044;SDS011;25735;48.122;11.422;2022-08-01T06:50:49;4.40;;;2.67;;
40044;SDS011;25735;48.122;11.422;2022-08-01T06:53:32;2.90;;;2.13;;
40044;SDS011;25735;48.122;11.422;2022-08-01T06:55:57;2.38;;;2.17;;
40044;SDS011;25735;48.122;11.422;2022-08-01T06:58:22;2.50;;;2.23;;
40044;SDS011;25735;48.122;11.422;2022-08-01T07:00:47;4.20;;;2.63;;
40044;SDS011;25735;48.122;11.422;2022-08-01T07:03:13;2.43;;;2.17;;
40044;SDS011;25735;48.122;11.422;2022-08-01T07:05:38;3.43;;;2.57;;
40044;SDS011;25735;48.122;11.422;2022-08-01T07:08:03;5.80;;;2.53;;
40044;SDS011;25735;48.122;11.422;2022-08-01T07:10:28;3.85;;;2.30;;
40044;SDS011;25735;48.122;11.422;2022-08-01T07:12:53;2.45;;;2.22;;
40044;SDS011;25735;48.122;11.422;2022-08-01T07:15:19;3.78;;;2.22;;
40044;SDS011;25735;48.122;11.422;2022-08-01T07:17:46;4.38;;;2.63;;
40044;SDS011;25735;48.122;11.422;2022-08-01T07:20:12;2.60;;;2.40;;
40044;SDS011;25735;48.122;11.422;2022-08-01T07:22:37;2.50;;;2.30;;
40044;SDS011;25735;48.122;11.422;2022-08-01T07:25:06;3.28;;;2.83;;
40044;SDS011;25735;48.122;11.422;2022-08-01T07:27:31;2.92;;;2.70;;
40044;SDS011;25735;48.122;11.422;2022-08-01T07:29:56;2.88;;;2.13;;
40044;SDS011;25735;48.122;11.422;2022-08-01T07:32:21;2.77;;;2.53;;
40044;SDS011;25735;48.122;11.422;2022-08-01T07:34:47;3.23;;;2.10;;
40044;SDS011;25735;48.122;11.422;2022-08-01T07:37:12;3.20;;;2.27;;
40044;SDS011;25735;48.122;11.422;2022-08-01T07:39:37;3.63;;;2.50;;
40044;SDS011;25735;48.122;11.422;2022-08-01T07:42:02;2.37;;;2.17;;
40044;SDS011;25735;48.122;11.422;2022-08-01T07:44:27;2.83;;;2.47;;
40044;SDS011;25735;48.122;11.422;2022-08-01T07:46:52;3.33;;;3.03;;
40044;SDS011;25735;48.122;11.422;2022-08-01T07:49:18;2.75;;;2.47;;
40044;SDS011;25735;48.122;11.422;2022-08-01T07:51:43;4.30;;;2.47;;
40044;SDS011;25735;48.122;11.422;2022-08-01T07:54:08;3.00;;;2.67;;
40044;SDS011;25735;48.122;11.422;2022-08-01T07:56:33;8.03;;;3.50;;
40044;SDS011;25735;48.122;11.422;2022-08-01T07:58:58;2.43;;;2.23;;
40044;SDS011;25735;48.122;11.422;2022-08-01T08:01:24;2.73;;;2.43;;
40044;SDS011;25735;48.122;11.422;2022-08-01T08:03:49;3.80;;;2.77;;
40044;SDS011;25735;48.122;11.422;2022-08-01T08:06:14;4.03;;;2.40;;
40044;SDS011;25735;48.122;11.422;2022-08-01T08:08:39;2.90;;;2.70;;
40044;SDS011;25735;48.122;11.422;2022-08-01T08:11:04;3.07;;;2.77;;
40044;SDS011;25735;48.122;11.422;2022-08-01T08:13:29;3.60;;;2.30;;
40044;SDS011;25735;48.122;11.422;2022-08-01T08:15:55;2.80;;;2.40;;
40044;SDS011;25735;48.122;11.422;2022-08-01T08:18:20;3.15;;;2.40;;
40044;SDS011;25735;48.122;11.422;2022-08-01T08:20:45;2.30;;;2.10;;
40044;SDS011;25735;48.122;11.422;2022-08-01T08:23:11;3.28;;;2.53;;
40044;SDS011;25735;48.122;11.422;2022-08-01T08:25:55;3.25;;;2.65;;
40044;SDS011;25735;48.122;11.422;2022-08-01T08:28:20;3.33;;;2.40;;
40044;SDS011;25735;48.122;11.422;2022-08-01T08:30:45;4.53;;;2.22;;
40044;SDS011;25735;48.122;11.422;2022-08-01T08:33:10;2.90;;;2.37;;
40044;SDS011;25735;48.122;11.422;2022-08-01T08:35:36;3.50;;;2.60;;
40044;SDS011;25735;48.122;11.422;2022-08-01T08:38:03;2.92;;;2.25;;
40044;SDS011;25735;48.122;11.422;2022-08-01T08:40:29;2.83;;;2.50;;
40044;SDS011;25735;48.122;11.422;2022-08-01T08:42:54;2.92;;;2.40;;
40044;SDS011;25735;48.122;11.422;2022-08-01T08:45:20;2.55;;;2.35;;
40044;SDS011;25735;48.122;11.422;2022-08-01T08:47:45;3.50;;;2.77;;
40044;SDS011;25735;48.122;11.422;2022-08-01T08:50:11;2.63;;;2.42;;
40044;SDS011;25735;48.122;11.422;2022-08-01T08:52:37;2.33;;;2.13;;
40044;SDS011;25735;48.122;11.422;2022-08-01T08:55:03;3.00;;;2.03;;
40044;SDS011;25735;48.122;11.422;2022-08-01T08:57:28;2.35;;;2.15;;
40044;SDS011;25735;48.122;11.422;2022-08-01T08:59:53;3.25;;;2.35;;
40044;SDS011;25735;48.122;11.422;2022-08-01T09:02:20;2.40;;;2.20;;
40044;SDS011;25735;48.122;11.422;2022-08-01T09:04:46;2.33;;;2.13;;
40044;SDS011;25735;48.122;11.422;2022-08-01T09:07:11;2.58;;;2.38;;
40044;SDS011;25735;48.122;11.422;2022-08-01T09:09:38;2.58;;;2.33;;
40044;SDS011;25735;48.122;11.422;2022-08-01T09:12:04;2.37;;;2.17;;
40044;SDS011;25735;48.122;11.422;2022-08-01T09:14:29;2.95;;;1.65;;
40044;SDS011;25735;48.122;11.422;2022-08-01T09:19:35;2.00;;;1.80;;
40044;SDS011;25735;48.122;11.422;2022-08-01T09:22:03;2.00;;;1.90;;
40044;SDS011;25735;48.122;11.422;2022-08-01T09:24:30;3.17;;;1.60;;
40044;SDS011;25735;48.122;11.422;2022-08-01T09:26:55;2.17;;;1.95;;
40044;SDS011;25735;48.122;11.422;2022-08-01T09:29:24;2.47;;;1.52;;
40044;SDS011;25735;48.122;11.422;2022-08-01T09:31:50;1.73;;;1.48;;
40044;SDS011;25735;48.122;11.422;2022-08-01T09:34:17;2.28;;;1.40;;
40044;SDS011;25735;48.122;11.422;2022-08-01T09:39:17;1.55;;;1.45;;
40044;SDS011;25735;48.122;11.422;2022-08-01T09:41:42;2.13;;;1.92;;
40044;SDS011;25735;48.122;11.422;2022-08-01T09:44:07;3.90;;;1.80;;
40044;SDS011;25735;48.122;11.422;2022-08-01T09:46:32;1.70;;;1.60;;
40044;SDS011;25735;48.122;11.422;2022-08-01T09:48:59;1.80;;;1.40;;
40044;SDS011;25735;48.122;11.422;2022-08-01T09:51:37;1.70;;;1.60;;
40044;SDS011;25735;48.122;11.422;2022-08-01T09:54:03;1.83;;;1.60;;
40044;SDS011;25735;48.122;11.422;2022-08-01T09:56:36;3.22;;;1.70;;
40044;SDS011;25735;48.122;11.422;2022-08-01T09:59:01;1.98;;;1.55;;
40044;SDS011;25735;48.122;11.422;2022-08-01T10:01:27;1.80;;;1.70;;
40044;SDS011;25735;48.122;11.422;2022-08-01T10:04:05;2.22;;;1.95;;
40044;SDS011;25735;48.122;11.422;2022-08-01T10:06:30;5.78;;;1.80;;
40044;SDS011;25735;48.122;11.422;2022-08-01T10:08:56;1.65;;;1.48;;
40044;SDS011;25735;48.122;11.422;2022-08-01T10:11:21;1.57;;;1.47;;
40044;SDS011;25735;48.122;11.422;2022-08-01T10:13:47;2.17;;;1.98;;
40044;SDS011;25735;48.122;11.422;2022-08-01T10:16:13;2.60;;;1.75;;
40044;SDS011;25735;48.122;11.422;2022-08-01T10:18:38;2.53;;;1.35;;
40044;SDS011;25735;48.122;11.422;2022-08-01T10:21:05;1.30;;;1.20;;
40044;SDS011;25735;48.122;11.422;2022-08-01T10:23:30;1.63;;;1.40;;
40044;SDS011;25735;48.122;11.422;2022-08-01T10:25:58;3.95;;;1.50;;
40044;SDS011;25735;48.122;11.422;2022-08-01T10:28:23;1.40;;;1.30;;
40044;SDS011;25735;48.122;11.422;2022-08-01T10:30:49;3.58;;;1.75;;
40044;SDS011;25735;48.122;11.422;2022-08-01T10:33:15;2.60;;;1.60;;
40044;SDS011;25735;48.122;11.422;2022-08-01T10:35:41;1.88;;;1.45;;
40044;SDS011;25735;48.122;11.422;2022-08-01T10:38:06;1.70;;;1.25;;
40044;SDS011;25735;48.122;11.422;2022-08-01T10:40:32;2.63;;;1.23;;
40044;SDS011;25735;48.122;11.422;2022-08-01T10:42:58;1.38;;;1.27;;
40044;SDS011;25735;48.122;11.422;2022-08-01T10:45:23;2.58;;;1.17;;
40044;SDS011;25735;48.122;11.422;2022-08-01T10:48:04;1.60;;;1.50;;
40044;SDS011;25735;48.122;11.422;2022-08-01T10:50:35;1.48;;;1.35;;
40044;SDS011;25735;48.122;11.422;2022-08-01T10:53:18;1.42;;;1.10;;
40044;SDS011;25735;48.122;11.422;2022-08-01T11:03:36;1.30;;;1.20;;
40044;SDS011;25735;48.122;11.422;2022-08-01T11:06:02;1.30;;;1.20;;
40044;SDS011;25735;48.122;11.422;2022-08-01T11:08:28;2.83;;;1.50;;
40044;SDS011;25735;48.122;11.422;2022-08-01T11:11:01;1.52;;;1.42;;
40044;SDS011;25735;48.122;11.422;2022-08-01T11:16:33;2.40;;;1.80;;
40044;SDS011;25735;48.122;11.422;2022-08-01T11:18:59;1.70;;;1.60;;
40044;SDS011;25735;48.122;11.422;2022-08-01T11:24:08;2.47;;;1.67;;
40044;SDS011;25735;48.122;11.422;2022-08-01T11:26:33;1.83;;;1.55;;
40044;SDS011;25735;48.122;11.422;2022-08-01T11:29:15;2.83;;;1.20;;
40044;SDS011;25735;48.122;11.422;2022-08-01T11:31:40;3.78;;;1.70;;
40044;SDS011;25735;48.122;11.422;2022-08-01T11:34:05;1.77;;;1.40;;
40044;SDS011;25735;48.122;11.422;2022-08-01T11:36:31;2.05;;;1.38;;
40044;SDS011;25735;48.122;11.422;2022-08-01T11:41:25;1.10;;;1.00;;
40044;SDS011;25735;48.122;11.422;2022-08-01T11:48:47;1.48;;;1.23;;
40044;SDS011;25735;48.122;11.422;2022-08-01T11:51:32;2.17;;;1.45;;
40044;SDS011;25735;48.122;11.422;2022-08-01T11:53:57;1.03;;;0.80;;
40044;SDS011;25735;48.122;11.422;2022-08-01T11:56:23;1.65;;;1.48;;
40044;SDS011;25735;48.122;11.422;2022-08-01T11:58:49;1.25;;;1.15;;
40044;SDS011;25735;48.122;11.422;2022-08-01T12:01:15;1.25;;;1.15;;
40044;SDS011;25735;48.122;11.422;2022-08-01T12:03:40;1.95;;;1.10;;
40044;SDS011;25735;48.122;11.422;2022-08-01T12:06:05;1.08;;;1.00;;
40044;SDS011;25735;48.122;11.422;2022-08-01T12:08:32;1.47;;;0.73;;
40044;SDS011;25735;48.122;11.422;2022-08-01T12:10:59;1.25;;;1.15;;
40044;SDS011;25735;48.122;11.422;2022-08-01T12:13:25;2.55;;;1.33;;
40044;SDS011;25735;48.122;11.422;2022-08-01T12:15:50;0.73;;;0.73;;
40044;SDS011;25735;48.122;11.422;2022-08-01T12:18:15;1.88;;;1.10;;
40044;SDS011;25735;48.122;11.422;2022-08-01T12:20:42;1.17;;;1.02;;
40044;SDS011;25735;48.122;11.422;2022-08-01T12:23:09;2.63;;;1.45;;
40044;SDS011;25735;48.122;11.422;2022-08-01T12:25:34;0.90;;;0.90;;
40044;SDS011;25735;48.122;11.422;2022-08-01T12:28:03;1.17;;;0.85;;
40044;SDS011;25735;48.122;11.422;2022-08-01T12:30:29;1.10;;;0.98;;
40044;SDS011;25735;48.122;11.422;2022-08-01T12:32:55;1.25;;;0.90;;
40044;SDS011;25735;48.122;11.422;2022-08-01T12:35:22;1.92;;;0.90;;
40044;SDS011;25735;48.122;11.422;2022-08-01T12:37:52;2.28;;;1.15;;
40044;SDS011;25735;48.122;11.422;2022-08-01T12:40:21;1.75;;;0.80;;
40044;SDS011;25735;48.122;11.422;2022-08-01T12:42:47;0.98;;;0.88;;
40044;SDS011;25735;48.122;11.422;2022-08-01T12:45:35;2.38;;;1.00;;
40044;SDS011;25735;48.122;11.422;2022-08-01T12:47:58;4.13;;;0.80;;
40044;SDS011;25735;48.122;11.422;2022-08-01T12:50:25;1.58;;;0.73;;
40044;SDS011;25735;48.122;11.422;2022-08-01T12:52:53;0.77;;;0.77;;
40044;SDS011;25735;48.122;11.422;2022-08-01T12:55:19;0.75;;;0.75;;
40044;SDS011;25735;48.122;11.422;2022-08-01T12:57:46;0.70;;;0.70;;
40044;SDS011;25735;48.122;11.422;2022-08-01T13:02:44;1.00;;;0.70;;
40044;SDS011;25735;48.122;11.422;2022-08-01T13:05:10;1.35;;;0.90;;
40044;SDS011;25735;48.122;11.422;2022-08-01T13:07:40;0.90;;;0.75;;
40044;SDS011;25735;48.122;11.422;2022-08-01T13:10:05;1.15;;;0.95;;
40044;SDS011;25735;48.122;11.422;2022-08-01T13:12:31;1.00;;;0.88;;
40044;SDS011;25735;48.122;11.422;2022-08-01T13:14:56;2.42;;;1.23;;
40044;SDS011;25735;48.122;11.422;2022-08-01T13:17:29;1.27;;;1.00;;
40044;SDS011;25735;48.122;11.422;2022-08-01T13:19:54;1.20;;;1.10;;
40044;SDS011;25735;48.122;11.422;2022-08-01T13:22:19;4.23;;;1.20;;
40044;SDS011;25735;48.122;11.422;2022-08-01T13:24:45;2.08;;;1.67;;
40044;SDS011;25735;48.122;11.422;2022-08-01T13:27:19;2.63;;;1.00;;
40044;SDS011;25735;48.122;11.422;2022-08-01T13:29:44;1.52;;;1.10;;
40044;SDS011;25735;48.122;11.422;2022-08-01T13:32:18;3.33;;;1.42;;
40044;SDS011;25735;48.122;11.422;2022-08-01T13:34:43;1.83;;;1.17;;
40044;SDS011;25735;48.122;11.422;2022-08-01T13:37:08;1.73;;;1.20;;
40044;SDS011;25735;48.122;11.422;2022-08-01T13:39:34;1.70;;;1.00;;
40044;SDS011;25735;48.122;11.422;2022-08-01T13:42:05;1.38;;;1.20;;
40044;SDS011;25735;48.122;11.422;2022-08-01T13:44:30;1.93;;;1.00;;
40044;SDS011;25735;48.122;11.422;2022-08-01T13:46:55;1.70;;;1.10;;
40044;SDS011;25735;48.122;11.422;2022-08-01T13:49:20;3.38;;;1.17;;
40044;SDS011;25735;48.122;11.422;2022-08-01T13:51:46;2.33;;;1.00;;
40044;SDS011;25735;48.122;11.422;2022-08-01T13:54:11;2.83;;;0.90;;
40044;SDS011;25735;48.122;11.422;2022-08-01T13:56:36;2.85;;;1.05;;
40044;SDS011;25735;48.122;11.422;2022-08-01T13:59:01;3.47;;;1.00;;
40044;SDS011;25735;48.122;11.422;2022-08-01T14:01:27;2.55;;;1.13;;
40044;SDS011;25735;48.122;11.422;2022-08-01T14:03:52;1.90;;;1.43;;
40044;SDS011;25735;48.122;11.422;2022-08-01T14:06:17;1.97;;;1.40;;
40044;SDS011;25735;48.122;11.422;2022-08-01T14:08:43;4.03;;;1.58;;
40044;SDS011;25735;48.122;11.422;2022-08-01T14:11:08;2.08;;;1.00;;
40044;SDS011;25735;48.122;11.422;2022-08-01T14:13:33;1.17;;;1.07;;
40044;SDS011;25735;48.122;11.422;2022-08-01T14:15:59;1.45;;;1.20;;
40044;SDS011;25735;48.122;11.422;2022-08-01T14:18:24;1.33;;;1.00;;
40044;SDS011;25735;48.122;11.422;2022-08-01T14:20:49;1.67;;;1.53;;
40044;SDS011;25735;48.122;11.422;2022-08-01T14:23:15;1.87;;;1.30;;
40044;SDS011;25735;48.122;11.422;2022-08-01T14:25:40;1.37;;;1.07;;
40044;SDS011;25735;48.122;11.422;2022-08-01T14:28:06;2.40;;;1.23;;
40044;SDS011;25735;48.122;11.422;2022-08-01T14:30:32;2.17;;;1.45;;
40044;SDS011;25735;48.122;11.422;2022-08-01T14:32:57;1.88;;;1.73;;
40044;SDS011;25735;48.122;11.422;2022-08-01T14:35:22;1.15;;;1.05;;
40044;SDS011;25735;48.122;11.422;2022-08-01T14:37:48;2.43;;;0.90;;
40044;SDS011;25735;48.122;11.422;2022-08-01T14:40:13;2.80;;;1.30;;
40044;SDS011;25735;48.122;11.422;2022-08-01T14:42:38;2.40;;;1.17;;
40044;SDS011;25735;48.122;11.422;2022-08-01T14:45:04;1.55;;;1.35;;
40044;SDS011;25735;48.122;11.422;2022-08-01T14:47:33;3.88;;;1.08;;
40044;SDS011;25735;48.122;11.422;2022-08-01T14:49:58;1.42;;;1.20;;
40044;SDS011;25735;48.122;11.422;2022-08-01T14:52:23;3.10;;;1.30;;
40044;SDS011;25735;48.122;11.422;2022-08-01T14:54:49;2.57;;;1.17;;
40044;SDS011;25735;48.122;11.422;2022-08-01T14:57:14;1.17;;;1.10;;
40044;SDS011;25735;48.122;11.422;2022-08-01T14:59:42;1.45;;;1.23;;
40044;SDS011;25735;48.122;11.422;2022-08-01T15:02:08;0.93;;;0.93;;